sensor_id;sensor_type;location;lat;lon;timestamp;temperature;humidity
20524;DHT22;10420;48.542;12.270;2022-08-21T00:01:36;16.60;99.90
20524;DHT22;10420;48.542;12.270;2022-08-21T00:06:38;16.50;99.90
20524;DHT22;10420;48.542;12.270;2022-08-21T00:11:38;16.50;99.90
20524;DHT22;10420;48.542;12.270;2022-08-21T00:16:39;16.40;99.90
20524;DHT22;10420;48.542;12.270;2022-08-21T00:21:40;16.40;99.90
20524;DHT22;10420;48.542;12.270;2022-08-21T00:26:41;16.40;99.90
20524;DHT22;10420;48.542;12.270;2022-08-21T00:31:44;16.40;99.90
20524;DHT22;10420;48.542;12.270;2022-08-21T00:36:45;16.30;99.90
20524;DHT22;10420;48.542;12.270;2022-08-21T00:41:46;16.30;99.90
20524;DHT22;10420;48.542;12.270;2022-08-21T00:46:46;16.30;99.90
20524;DHT22;10420;48.542;12.270;2022-08-21T00:51:50;16.30;99.90
20524;DHT22;10420;48.542;12.270;2022-08-21T00:56:54;16.20;99.90
20524;DHT22;10420;48.542;12.270;2022-08-21T01:01:55;16.30;99.90
20524;DHT22;10420;48.542;12.270;2022-08-21T01:06:56;16.30;99.90
20524;DHT22;10420;48.542;12.270;2022-08-21T01:11:57;16.30;99.90
20524;DHT22;10420;48.542;12.270;2022-08-21T01:17:00;16.20;99.90
20524;DHT22;10420;48.542;12.270;2022-08-21T01:22:01;16.20;99.90
20524;DHT22;10420;48.542;12.270;2022-08-21T01:27:03;16.20;99.90
20524;DHT22;10420;48.542;12.270;2022-08-21T01:32:08;16.10;99.90
20524;DHT22;10420;48.542;12.270;2022-08-21T01:37:10;16.20;99.90
20524;DHT22;10420;48.542;12.270;2022-08-21T01:42:11;16.20;99.90
20524;DHT22;10420;48.542;12.270;2022-08-21T01:47:13;16.20;99.90
20524;DHT22;10420;48.542;12.270;2022-08-21T01:52:14;16.20;99.90
20524;DHT22;10420;48.542;12.270;2022-08-21T01:57:15;16.20;99.90
20524;DHT22;10420;48.542;12.270;2022-08-21T02:02:16;16.20;99.90
20524;DHT22;10420;48.542;12.270;2022-08-21T02:07:17;16.20;99.90
20524;DHT22;10420;48.542;12.270;2022-08-21T02:12:18;16.30;99.90
20524;DHT22;10420;48.542;12.270;2022-08-21T02:17:19;16.40;99.90
20524;DHT22;10420;48.542;12.270;2022-08-21T02:22:20;16.40;99.90
20524;DHT22;10420;48.542;12.270;2022-08-21T02:27:22;16.40;99.90
20524;DHT22;10420;48.542;12.270;2022-08-21T02:32:23;16.30;99.90
20524;DHT22;10420;48.542;12.270;2022-08-21T02:37:24;16.50;99.90
20524;DHT22;10420;48.542;12.270;2022-08-21T02:42:25;16.40;99.90
20524;DHT22;10420;48.542;12.270;2022-08-21T02:47:25;16.40;99.90
20524;DHT22;10420;48.542;12.270;2022-08-21T02:52:26;16.30;99.90
20524;DHT22;10420;48.542;12.270;2022-08-21T02:57:27;16.20;99.90
20524;DHT22;10420;48.542;12.270;2022-08-21T03:02:27;16.20;99.90
20524;DHT22;10420;48.542;12.270;2022-08-21T03:07:28;16.20;99.90
20524;DHT22;10420;48.542;12.270;2022-08-21T03:12:28;16.20;99.90
20524;DHT22;10420;48.542;12.270;2022-08-21T03:17:29;16.20;99.90
20524;DHT22;10420;48.542;12.270;2022-08-21T03:22:30;16.30;99.90
20524;DHT22;10420;48.542;12.270;2022-08-21T03:27:30;16.20;99.90
20524;DHT22;10420;48.542;12.270;2022-08-21T03:32:32;16.30;99.90
20524;DHT22;10420;48.542;12.270;2022-08-21T03:37:32;16.20;99.90
20524;DHT22;10420;48.542;12.270;2022-08-21T03:42:33;16.20;99.90
20524;DHT22;10420;48.542;12.270;2022-08-21T03:47:33;16.20;99.90
20524;DHT22;10420;48.542;12.270;2022-08-21T03:52:34;16.20;99.90
20524;DHT22;10420;48.542;12.270;2022-08-21T03:57:35;16.20;99.90
20524;DHT22;10420;48.542;12.270;2022-08-21T04:02:35;16.20;99.90
20524;DHT22;10420;48.542;12.270;2022-08-21T04:07:36;16.20;99.90
20524;DHT22;10420;48.542;12.270;2022-08-21T04:12:36;16.20;99.90
20524;DHT22;10420;48.542;12.270;2022-08-21T04:17:37;16.20;99.90
20524;DHT22;10420;48.542;12.270;2022-08-21T04:22:38;16.30;99.90
20524;DHT22;10420;48.542;12.270;2022-08-21T04:27:39;16.40;99.90
20524;DHT22;10420;48.542;12.270;2022-08-21T04:32:45;16.40;99.90
20524;DHT22;10420;48.542;12.270;2022-08-21T04:37:47;16.50;99.90
20524;DHT22;10420;48.542;12.270;2022-08-21T04:42:51;16.50;99.90
20524;DHT22;10420;48.542;12.270;2022-08-21T04:47:54;16.50;99.90
20524;DHT22;10420;48.542;12.270;2022-08-21T04:52:56;16.50;99.90
20524;DHT22;10420;48.542;12.270;2022-08-21T04:57:57;16.60;99.90
20524;DHT22;10420;48.542;12.270;2022-08-21T05:02:58;16.50;99.90
20524;DHT22;10420;48.542;12.270;2022-08-21T05:08:01;16.50;99.90
20524;DHT22;10420;48.542;12.270;2022-08-21T05:13:02;16.50;99.90
20524;DHT22;10420;48.542;12.270;2022-08-21T05:18:05;16.60;99.90
20524;DHT22;10420;48.542;12.270;2022-08-21T05:23:11;16.50;99.90
20524;DHT22;10420;48.542;12.270;2022-08-21T05:28:12;16.50;99.90
20524;DHT22;10420;48.542;12.270;2022-08-21T05:33:13;16.50;99.90
20524;DHT22;10420;48.542;12.270;2022-08-21T05:38:13;16.50;99.90
20524;DHT22;10420;48.542;12.270;2022-08-21T05:43:14;16.60;99.90
20524;DHT22;10420;48.542;12.270;2022-08-21T05:48:17;16.60;99.90
20524;DHT22;10420;48.542;12.270;2022-08-21T05:53:20;16.70;99.90
20524;DHT22;10420;48.542;12.270;2022-08-21T05:58:21;16.70;99.90
20524;DHT22;10420;48.542;12.270;2022-08-21T06:03:25;16.60;99.90
20524;DHT22;10420;48.542;12.270;2022-08-21T06:08:27;16.70;99.90
20524;DHT22;10420;48.542;12.270;2022-08-21T06:13:28;16.70;99.90
20524;DHT22;10420;48.542;12.270;2022-08-21T06:18:29;16.60;99.90
20524;DHT22;10420;48.542;12.270;2022-08-21T06:23:30;16.70;99.90
20524;DHT22;10420;48.542;12.270;2022-08-21T06:28:31;16.70;99.90
20524;DHT22;10420;48.542;12.270;2022-08-21T06:33:31;16.70;99.90
20524;DHT22;10420;48.542;12.270;2022-08-21T06:38:32;16.60;99.90
20524;DHT22;10420;48.542;12.270;2022-08-21T06:43:33;16.60;99.90
20524;DHT22;10420;48.542;12.270;2022-08-21T06:48:34;16.70;99.90
20524;DHT22;10420;48.542;12.270;2022-08-21T06:53:34;16.90;99.90
20524;DHT22;10420;48.542;12.270;2022-08-21T06:58:35;17.10;99.90
20524;DHT22;10420;48.542;12.270;2022-08-21T07:03:41;17.10;99.90
20524;DHT22;10420;48.542;12.270;2022-08-21T07:08:42;17.00;99.90
20524;DHT22;10420;48.542;12.270;2022-08-21T07:13:43;17.40;99.90
20524;DHT22;10420;48.542;12.270;2022-08-21T07:18:44;17.50;99.90
20524;DHT22;10420;48.542;12.270;2022-08-21T07:23:48;17.60;99.90
20524;DHT22;10420;48.542;12.270;2022-08-21T07:28:49;17.70;99.90
20524;DHT22;10420;48.542;12.270;2022-08-21T07:33:50;18.10;99.90
20524;DHT22;10420;48.542;12.270;2022-08-21T07:38:51;19.00;99.90
20524;DHT22;10420;48.542;12.270;2022-08-21T07:43:52;18.70;99.90
20524;DHT22;10420;48.542;12.270;2022-08-21T07:48:53;18.90;99.90
20524;DHT22;10420;48.542;12.270;2022-08-21T07:53:55;18.50;99.90
20524;DHT22;10420;48.542;12.270;2022-08-21T07:58:56;18.40;99.90
20524;DHT22;10420;48.542;12.270;2022-08-21T08:03:58;18.30;99.90
20524;DHT22;10420;48.542;12.270;2022-08-21T08:08:58;18.40;99.90
20524;DHT22;10420;48.542;12.270;2022-08-21T08:13:59;18.40;99.90
20524;DHT22;10420;48.542;12.270;2022-08-21T08:19:00;18.50;99.90
20524;DHT22;10420;48.542;12.270;2022-08-21T08:24:00;19.00;99.90
20524;DHT22;10420;48.542;12.270;2022-08-21T08:29:01;19.40;99.90
20524;DHT22;10420;48.542;12.270;2022-08-21T08:34:02;19.10;99.90
20524;DHT22;10420;48.542;12.270;2022-08-21T08:39:04;18.40;99.90
20524;DHT22;10420;48.542;12.270;2022-08-21T08:44:05;19.70;99.90
20524;DHT22;10420;48.542;12.270;2022-08-21T08:54:21;19.60;99.90
20524;DHT22;10420;48.542;12.270;2022-08-21T08:59:39;19.60;99.90
20524;DHT22;10420;48.542;12.270;2022-08-21T09:04:41;19.10;99.90
20524;DHT22;10420;48.542;12.270;2022-08-21T09:10:05;18.90;99.90
20524;DHT22;10420;48.542;12.270;2022-08-21T09:20:29;19.40;99.90
20524;DHT22;10420;48.542;12.270;2022-08-21T09:25:42;19.60;99.90
20524;DHT22;10420;48.542;12.270;2022-08-21T09:30:43;19.30;99.90
20524;DHT22;10420;48.542;12.270;2022-08-21T09:35:54;20.40;99.90
20524;DHT22;10420;48.542;12.270;2022-08-21T09:41:07;19.90;99.90
20524;DHT22;10420;48.542;12.270;2022-08-21T09:46:12;19.40;99.90
20524;DHT22;10420;48.542;12.270;2022-08-21T09:51:29;19.80;99.90
20524;DHT22;10420;48.542;12.270;2022-08-21T09:56:51;20.00;99.90
20524;DHT22;10420;48.542;12.270;2022-08-21T10:02:30;20.20;99.90
20524;DHT22;10420;48.542;12.270;2022-08-21T10:07:32;20.40;99.90
20524;DHT22;10420;48.542;12.270;2022-08-21T10:18:29;20.10;99.90
20524;DHT22;10420;48.542;12.270;2022-08-21T10:29:21;21.90;99.90
20524;DHT22;10420;48.542;12.270;2022-08-21T10:35:00;24.00;99.90
20524;DHT22;10420;48.542;12.270;2022-08-21T10:40:34;23.40;99.90
20524;DHT22;10420;48.542;12.270;2022-08-21T10:45:51;24.60;99.90
20524;DHT22;10420;48.542;12.270;2022-08-21T10:51:04;24.20;99.90
20524;DHT22;10420;48.542;12.270;2022-08-21T10:56:19;23.30;99.90
20524;DHT22;10420;48.542;12.270;2022-08-21T11:01:39;22.30;99.90
20524;DHT22;10420;48.542;12.270;2022-08-21T11:06:47;23.10;99.90
20524;DHT22;10420;48.542;12.270;2022-08-21T11:11:59;23.90;99.90
20524;DHT22;10420;48.542;12.270;2022-08-21T11:17:07;24.40;99.90
20524;DHT22;10420;48.542;12.270;2022-08-21T11:33:03;24.40;99.90
20524;DHT22;10420;48.542;12.270;2022-08-21T11:43:39;24.40;99.90
20524;DHT22;10420;48.542;12.270;2022-08-21T11:54:35;24.40;99.90
20524;DHT22;10420;48.542;12.270;2022-08-21T11:59:45;24.40;99.90
20524;DHT22;10420;48.542;12.270;2022-08-21T12:04:56;24.30;99.90
20524;DHT22;10420;48.542;12.270;2022-08-21T12:09:58;24.20;99.90
20524;DHT22;10420;48.542;12.270;2022-08-21T12:15:15;24.40;99.90
20524;DHT22;10420;48.542;12.270;2022-08-21T12:25:46;24.10;99.90
20524;DHT22;10420;48.542;12.270;2022-08-21T12:30:49;23.60;99.90
20524;DHT22;10420;48.542;12.270;2022-08-21T12:35:51;23.30;99.90
20524;DHT22;10420;48.542;12.270;2022-08-21T12:40:56;23.00;99.90
20524;DHT22;10420;48.542;12.270;2022-08-21T12:45:57;23.00;99.90
20524;DHT22;10420;48.542;12.270;2022-08-21T12:51:12;23.50;99.90
20524;DHT22;10420;48.542;12.270;2022-08-21T12:56:19;23.50;99.90
20524;DHT22;10420;48.542;12.270;2022-08-21T13:01:25;23.50;99.90
20524;DHT22;10420;48.542;12.270;2022-08-21T13:06:36;23.50;99.90
20524;DHT22;10420;48.542;12.270;2022-08-21T13:11:39;23.30;99.90
20524;DHT22;10420;48.542;12.270;2022-08-21T13:16:40;23.50;99.90
20524;DHT22;10420;48.542;12.270;2022-08-21T13:21:42;23.50;99.90
20524;DHT22;10420;48.542;12.270;2022-08-21T13:26:44;23.50;99.90
20524;DHT22;10420;48.542;12.270;2022-08-21T13:32:05;23.50;99.90
20524;DHT22;10420;48.542;12.270;2022-08-21T13:37:08;23.40;99.90
20524;DHT22;10420;48.542;12.270;2022-08-21T13:42:12;23.50;99.90
20524;DHT22;10420;48.542;12.270;2022-08-21T13:47:15;23.50;99.90
20524;DHT22;10420;48.542;12.270;2022-08-21T13:52:24;23.60;99.90
20524;DHT22;10420;48.542;12.270;2022-08-21T13:57:34;23.40;99.90
20524;DHT22;10420;48.542;12.270;2022-08-21T14:02:39;23.40;99.90
20524;DHT22;10420;48.542;12.270;2022-08-21T14:07:42;23.30;99.90
20524;DHT22;10420;48.542;12.270;2022-08-21T14:12:55;23.00;99.90
20524;DHT22;10420;48.542;12.270;2022-08-21T14:18:16;22.80;99.90
20524;DHT22;10420;48.542;12.270;2022-08-21T14:23:25;22.70;99.90
20524;DHT22;10420;48.542;12.270;2022-08-21T14:28:27;22.60;99.90
20524;DHT22;10420;48.542;12.270;2022-08-21T14:33:31;22.50;99.90
20524;DHT22;10420;48.542;12.270;2022-08-21T14:38:37;22.50;99.90
20524;DHT22;10420;48.542;12.270;2022-08-21T14:43:38;22.40;99.90
20524;DHT22;10420;48.542;12.270;2022-08-21T14:48:39;22.40;99.90
20524;DHT22;10420;48.542;12.270;2022-08-21T14:53:39;22.40;99.90
20524;DHT22;10420;48.542;12.270;2022-08-21T14:58:42;22.40;99.90
20524;DHT22;10420;48.542;12.270;2022-08-21T15:03:45;22.30;99.90
20524;DHT22;10420;48.542;12.270;2022-08-21T15:08:47;22.40;99.90
20524;DHT22;10420;48.542;12.270;2022-08-21T15:13:53;22.30;99.90
20524;DHT22;10420;48.542;12.270;2022-08-21T15:18:55;22.40;99.90
20524;DHT22;10420;48.542;12.270;2022-08-21T15:23:56;22.30;99.90
20524;DHT22;10420;48.542;12.270;2022-08-21T15:28:58;22.30;99.90
20524;DHT22;10420;48.542;12.270;2022-08-21T15:33:59;22.30;99.90
20524;DHT22;10420;48.542;12.270;2022-08-21T15:39:00;22.40;99.90
20524;DHT22;10420;48.542;12.270;2022-08-21T15:44:01;22.40;99.90
20524;DHT22;10420;48.542;12.270;2022-08-21T15:49:01;22.40;99.90
20524;DHT22;10420;48.542;12.270;2022-08-21T15:54:02;22.50;99.90
20524;DHT22;10420;48.542;12.270;2022-08-21T15:59:14;22.50;99.90
20524;DHT22;10420;48.542;12.270;2022-08-21T16:04:24;22.50;99.90
20524;DHT22;10420;48.542;12.270;2022-08-21T16:09:26;22.40;99.90
20524;DHT22;10420;48.542;12.270;2022-08-21T16:14:28;22.20;99.90
20524;DHT22;10420;48.542;12.270;2022-08-21T16:19:29;22.10;99.90
20524;DHT22;10420;48.542;12.270;2022-08-21T16:24:30;22.00;99.90
20524;DHT22;10420;48.542;12.270;2022-08-21T16:29:34;22.00;99.90
20524;DHT22;10420;48.542;12.270;2022-08-21T16:34:35;21.80;99.90
20524;DHT22;10420;48.542;12.270;2022-08-21T16:39:36;21.80;99.90
20524;DHT22;10420;48.542;12.270;2022-08-21T16:44:36;21.70;99.90
20524;DHT22;10420;48.542;12.270;2022-08-21T16:49:37;21.60;99.90
20524;DHT22;10420;48.542;12.270;2022-08-21T16:54:38;21.60;99.90
20524;DHT22;10420;48.542;12.270;2022-08-21T16:59:40;21.60;99.90
20524;DHT22;10420;48.542;12.270;2022-08-21T17:04:41;21.50;99.90
20524;DHT22;10420;48.542;12.270;2022-08-21T17:09:41;21.20;99.90
20524;DHT22;10420;48.542;12.270;2022-08-21T17:14:42;21.10;99.90
20524;DHT22;10420;48.542;12.270;2022-08-21T17:19:43;21.00;99.90
20524;DHT22;10420;48.542;12.270;2022-08-21T17:24:44;20.80;99.90
20524;DHT22;10420;48.542;12.270;2022-08-21T17:29:45;20.50;99.90
20524;DHT22;10420;48.542;12.270;2022-08-21T17:34:46;20.30;99.90
20524;DHT22;10420;48.542;12.270;2022-08-21T17:39:47;20.10;99.90
20524;DHT22;10420;48.542;12.270;2022-08-21T17:44:48;19.90;99.90
20524;DHT22;10420;48.542;12.270;2022-08-21T17:49:52;19.50;99.90
20524;DHT22;10420;48.542;12.270;2022-08-21T17:54:53;19.40;99.90
20524;DHT22;10420;48.542;12.270;2022-08-21T17:59:54;19.10;99.90
20524;DHT22;10420;48.542;12.270;2022-08-21T18:04:55;18.90;99.90
20524;DHT22;10420;48.542;12.270;2022-08-21T18:09:56;18.70;99.90
20524;DHT22;10420;48.542;12.270;2022-08-21T18:14:57;18.50;99.90
20524;DHT22;10420;48.542;12.270;2022-08-21T18:19:58;18.30;99.90
20524;DHT22;10420;48.542;12.270;2022-08-21T18:24:59;18.20;99.90
20524;DHT22;10420;48.542;12.270;2022-08-21T18:30:00;18.00;99.90
20524;DHT22;10420;48.542;12.270;2022-08-21T18:35:01;17.90;99.90
20524;DHT22;10420;48.542;12.270;2022-08-21T18:40:05;17.80;99.90
20524;DHT22;10420;48.542;12.270;2022-08-21T18:45:11;17.70;99.90
20524;DHT22;10420;48.542;12.270;2022-08-21T18:50:14;17.60;99.90
20524;DHT22;10420;48.542;12.270;2022-08-21T18:55:17;17.50;99.90
20524;DHT22;10420;48.542;12.270;2022-08-21T19:00:22;17.40;99.90
20524;DHT22;10420;48.542;12.270;2022-08-21T19:05:24;17.30;99.90
20524;DHT22;10420;48.542;12.270;2022-08-21T19:10:25;17.10;99.90
20524;DHT22;10420;48.542;12.270;2022-08-21T19:15:27;17.10;99.90
20524;DHT22;10420;48.542;12.270;2022-08-21T19:20:33;17.00;99.90
20524;DHT22;10420;48.542;12.270;2022-08-21T19:25:38;16.80;99.90
20524;DHT22;10420;48.542;12.270;2022-08-21T19:30:43;16.80;99.90
20524;DHT22;10420;48.542;12.270;2022-08-21T19:35:45;16.60;99.90
20524;DHT22;10420;48.542;12.270;2022-08-21T19:40:46;16.60;99.90
20524;DHT22;10420;48.542;12.270;2022-08-21T19:45:47;16.50;99.90
20524;DHT22;10420;48.542;12.270;2022-08-21T19:50:48;16.40;99.90
20524;DHT22;10420;48.542;12.270;2022-08-21T19:55:48;16.40;99.90
20524;DHT22;10420;48.542;12.270;2022-08-21T20:00:49;16.30;99.90
20524;DHT22;10420;48.542;12.270;2022-08-21T20:05:50;16.20;99.90
20524;DHT22;10420;48.542;12.270;2022-08-21T20:10:51;16.20;99.90
20524;DHT22;10420;48.542;12.270;2022-08-21T20:15:53;16.10;99.90
20524;DHT22;10420;48.542;12.270;2022-08-21T20:20:54;16.00;99.90
20524;DHT22;10420;48.542;12.270;2022-08-21T20:25:54;16.00;99.90
20524;DHT22;10420;48.542;12.270;2022-08-21T20:30:56;15.90;99.90
20524;DHT22;10420;48.542;12.270;2022-08-21T20:35:57;15.80;99.90
20524;DHT22;10420;48.542;12.270;2022-08-21T20:40:57;15.70;99.90
20524;DHT22;10420;48.542;12.270;2022-08-21T20:45:58;15.70;99.90
20524;DHT22;10420;48.542;12.270;2022-08-21T20:51:42;15.70;99.90
20524;DHT22;10420;48.542;12.270;2022-08-21T20:57:04;15.60;99.90
20524;DHT22;10420;48.542;12.270;2022-08-21T21:08:03;15.50;99.90
20524;DHT22;10420;48.542;12.270;2022-08-21T21:13:13;15.30;99.90
20524;DHT22;10420;48.542;12.270;2022-08-21T21:18:25;15.20;99.90
20524;DHT22;10420;48.542;12.270;2022-08-21T21:23:59;15.20;99.90
20524;DHT22;10420;48.542;12.270;2022-08-21T21:29:14;15.20;99.90
20524;DHT22;10420;48.542;12.270;2022-08-21T21:34:16;15.10;99.90
20524;DHT22;10420;48.542;12.270;2022-08-21T21:39:27;15.10;99.90
20524;DHT22;10420;48.542;12.270;2022-08-21T21:55:13;15.00;99.90
20524;DHT22;10420;48.542;12.270;2022-08-21T22:00:18;15.00;99.90
20524;DHT22;10420;48.542;12.270;2022-08-21T22:11:04;14.80;99.90
20524;DHT22;10420;48.542;12.270;2022-08-21T22:16:06;14.80;99.90
20524;DHT22;10420;48.542;12.270;2022-08-21T22:21:16;14.70;99.90
20524;DHT22;10420;48.542;12.270;2022-08-21T22:26:24;14.70;99.90
20524;DHT22;10420;48.542;12.270;2022-08-21T22:31:29;14.70;99.90
20524;DHT22;10420;48.542;12.270;2022-08-21T22:36:36;14.60;99.90
20524;DHT22;10420;48.542;12.270;2022-08-21T22:41:44;14.70;99.90
20524;DHT22;10420;48.542;12.270;2022-08-21T22:46:50;14.60;99.90
20524;DHT22;10420;48.542;12.270;2022-08-21T22:52:10;14.60;99.90
20524;DHT22;10420;48.542;12.270;2022-08-21T22:57:23;14.50;99.90
20524;DHT22;10420;48.542;12.270;2022-08-21T23:07:47;14.50;99.90
20524;DHT22;10420;48.542;12.270;2022-08-21T23:12:51;14.40;99.90
20524;DHT22;10420;48.542;12.270;2022-08-21T23:23:27;14.30;99.90
20524;DHT22;10420;48.542;12.270;2022-08-21T23:29:02;14.30;99.90
20524;DHT22;10420;48.542;12.270;2022-08-21T23:34:22;14.40;99.90
20524;DHT22;10420;48.542;12.270;2022-08-21T23:39:43;14.30;99.90
20524;DHT22;10420;48.542;12.270;2022-08-21T23:45:13;14.40;99.90
20524;DHT22;10420;48.542;12.270;2022-08-21T23:50:29;14.40;99.90
20524;DHT22;10420;48.542;12.270;2022-08-21T23:55:39;14.50;99.90
